sensor_id;sensor_type;location;lat;lon;timestamp;P1;durP1;ratioP1;P2;durP2;ratioP2
32329;SDS011;18807;52.434;13.238;2022-09-28T00:05:47;3.58;;;2.17;;
32329;SDS011;18807;52.434;13.238;2022-09-28T00:13:22;3.42;;;2.17;;
32329;SDS011;18807;52.434;13.238;2022-09-28T00:21:00;3.33;;;1.90;;
32329;SDS011;18807;52.434;13.238;2022-09-28T00:28:36;3.08;;;1.90;;
32329;SDS011;18807;52.434;13.238;2022-09-28T00:36:10;2.53;;;1.65;;
32329;SDS011;18807;52.434;13.238;2022-09-28T00:43:45;2.80;;;1.80;;
32329;SDS011;18807;52.434;13.238;2022-09-28T00:51:19;2.88;;;2.00;;
32329;SDS011;18807;52.434;13.238;2022-09-28T00:58:54;3.00;;;2.37;;
32329;SDS011;18807;52.434;13.238;2022-09-28T01:06:32;2.55;;;2.00;;
32329;SDS011;18807;52.434;13.238;2022-09-28T01:14:08;3.22;;;1.95;;
32329;SDS011;18807;52.434;13.238;2022-09-28T01:21:47;3.53;;;1.80;;
32329;SDS011;18807;52.434;13.238;2022-09-28T01:29:29;2.17;;;1.80;;
32329;SDS011;18807;52.434;13.238;2022-09-28T01:37:10;2.97;;;1.90;;
32329;SDS011;18807;52.434;13.238;2022-09-28T01:44:50;2.53;;;1.75;;
32329;SDS011;18807;52.434;13.238;2022-09-28T01:52:28;2.58;;;1.90;;
32329;SDS011;18807;52.434;13.238;2022-09-28T02:00:08;4.22;;;2.13;;
32329;SDS011;18807;52.434;13.238;2022-09-28T02:07:45;3.58;;;2.10;;
32329;SDS011;18807;52.434;13.238;2022-09-28T02:15:28;4.25;;;2.60;;
32329;SDS011;18807;52.434;13.238;2022-09-28T02:23:05;3.50;;;2.85;;
32329;SDS011;18807;52.434;13.238;2022-09-28T02:30:43;4.15;;;2.42;;
32329;SDS011;18807;52.434;13.238;2022-09-28T02:38:17;3.92;;;2.90;;
32329;SDS011;18807;52.434;13.238;2022-09-28T02:45:55;4.30;;;3.13;;
32329;SDS011;18807;52.434;13.238;2022-09-28T03:01:21;3.60;;;2.65;;
32329;SDS011;18807;52.434;13.238;2022-09-28T03:09:02;4.90;;;2.85;;
32329;SDS011;18807;52.434;13.238;2022-09-28T03:16:43;4.55;;;3.03;;
32329;SDS011;18807;52.434;13.238;2022-09-28T03:24:17;6.57;;;3.40;;
32329;SDS011;18807;52.434;13.238;2022-09-28T03:31:52;4.18;;;3.42;;
32329;SDS011;18807;52.434;13.238;2022-09-28T03:39:26;5.22;;;3.85;;
32329;SDS011;18807;52.434;13.238;2022-09-28T03:47:01;5.43;;;3.20;;
32329;SDS011;18807;52.434;13.238;2022-09-28T03:54:35;3.70;;;2.75;;
32329;SDS011;18807;52.434;13.238;2022-09-28T04:02:10;4.75;;;3.60;;
32329;SDS011;18807;52.434;13.238;2022-09-28T04:09:44;5.50;;;3.70;;
32329;SDS011;18807;52.434;13.238;2022-09-28T04:17:19;6.95;;;4.05;;
32329;SDS011;18807;52.434;13.238;2022-09-28T04:24:52;5.38;;;3.92;;
32329;SDS011;18807;52.434;13.238;2022-09-28T04:32:27;7.63;;;3.92;;
32329;SDS011;18807;52.434;13.238;2022-09-28T04:40:01;21.92;;;10.98;;
32329;SDS011;18807;52.434;13.238;2022-09-28T04:47:37;21.83;;;12.20;;
32329;SDS011;18807;52.434;13.238;2022-09-28T05:02:46;8.25;;;5.00;;
32329;SDS011;18807;52.434;13.238;2022-09-28T05:10:20;8.43;;;4.45;;
32329;SDS011;18807;52.434;13.238;2022-09-28T05:17:56;6.65;;;4.57;;
32329;SDS011;18807;52.434;13.238;2022-09-28T05:25:30;8.32;;;4.93;;
32329;SDS011;18807;52.434;13.238;2022-09-28T05:33:05;9.52;;;5.32;;
32329;SDS011;18807;52.434;13.238;2022-09-28T05:40:40;8.88;;;5.30;;
32329;SDS011;18807;52.434;13.238;2022-09-28T05:48:15;7.50;;;4.60;;
32329;SDS011;18807;52.434;13.238;2022-09-28T05:55:49;6.78;;;4.95;;
32329;SDS011;18807;52.434;13.238;2022-09-28T06:03:24;8.25;;;4.90;;
32329;SDS011;18807;52.434;13.238;2022-09-28T06:10:58;11.48;;;5.40;;
32329;SDS011;18807;52.434;13.238;2022-09-28T06:18:34;6.47;;;4.68;;
32329;SDS011;18807;52.434;13.238;2022-09-28T06:26:08;8.57;;;5.35;;
32329;SDS011;18807;52.434;13.238;2022-09-28T06:33:43;7.88;;;5.35;;
32329;SDS011;18807;52.434;13.238;2022-09-28T06:41:17;8.95;;;5.85;;
32329;SDS011;18807;52.434;13.238;2022-09-28T06:48:52;7.55;;;4.95;;
32329;SDS011;18807;52.434;13.238;2022-09-28T06:56:26;8.80;;;4.95;;
32329;SDS011;18807;52.434;13.238;2022-09-28T07:04:05;8.32;;;4.80;;
32329;SDS011;18807;52.434;13.238;2022-09-28T07:11:39;8.32;;;4.82;;
32329;SDS011;18807;52.434;13.238;2022-09-28T07:19:14;10.90;;;6.00;;
32329;SDS011;18807;52.434;13.238;2022-09-28T07:26:48;7.93;;;4.60;;
32329;SDS011;18807;52.434;13.238;2022-09-28T07:34:23;6.68;;;4.63;;
32329;SDS011;18807;52.434;13.238;2022-09-28T07:41:57;5.80;;;3.92;;
32329;SDS011;18807;52.434;13.238;2022-09-28T07:49:35;7.90;;;4.90;;
32329;SDS011;18807;52.434;13.238;2022-09-28T07:57:09;6.72;;;4.43;;
32329;SDS011;18807;52.434;13.238;2022-09-28T08:04:44;11.88;;;5.93;;
32329;SDS011;18807;52.434;13.238;2022-09-28T08:12:18;9.32;;;6.22;;
32329;SDS011;18807;52.434;13.238;2022-09-28T08:19:53;9.93;;;5.37;;
32329;SDS011;18807;52.434;13.238;2022-09-28T08:27:44;7.57;;;5.60;;
32329;SDS011;18807;52.434;13.238;2022-09-28T08:35:20;8.07;;;5.15;;
32329;SDS011;18807;52.434;13.238;2022-09-28T08:42:55;9.45;;;4.82;;
32329;SDS011;18807;52.434;13.238;2022-09-28T08:50:34;5.72;;;3.70;;
32329;SDS011;18807;52.434;13.238;2022-09-28T08:58:14;9.75;;;3.08;;
32329;SDS011;18807;52.434;13.238;2022-09-28T09:05:57;6.22;;;2.90;;
32329;SDS011;18807;52.434;13.238;2022-09-28T09:13:43;4.30;;;2.88;;
32329;SDS011;18807;52.434;13.238;2022-09-28T09:21:34;3.80;;;1.90;;
32329;SDS011;18807;52.434;13.238;2022-09-28T09:29:19;2.70;;;1.83;;
32329;SDS011;18807;52.434;13.238;2022-09-28T09:53:14;2.13;;;1.88;;
32329;SDS011;18807;52.434;13.238;2022-09-28T10:00:57;2.00;;;1.80;;
32329;SDS011;18807;52.434;13.238;2022-09-28T10:08:40;1.83;;;0.73;;
32329;SDS011;18807;52.434;13.238;2022-09-28T10:16:18;1.23;;;0.82;;
32329;SDS011;18807;52.434;13.238;2022-09-28T10:23:55;1.17;;;0.90;;
32329;SDS011;18807;52.434;13.238;2022-09-28T10:31:37;0.98;;;0.77;;
32329;SDS011;18807;52.434;13.238;2022-09-28T10:47:13;2.92;;;1.60;;
32329;SDS011;18807;52.434;13.238;2022-09-28T10:54:52;1.67;;;1.58;;
32329;SDS011;18807;52.434;13.238;2022-09-28T11:02:26;2.30;;;1.67;;
32329;SDS011;18807;52.434;13.238;2022-09-28T11:10:15;3.53;;;2.25;;
32329;SDS011;18807;52.434;13.238;2022-09-28T11:17:52;5.07;;;2.25;;
32329;SDS011;18807;52.434;13.238;2022-09-28T11:25:28;3.00;;;2.15;;
32329;SDS011;18807;52.434;13.238;2022-09-28T11:33:04;3.17;;;1.98;;
32329;SDS011;18807;52.434;13.238;2022-09-28T11:40:47;2.58;;;2.28;;
32329;SDS011;18807;52.434;13.238;2022-09-28T11:48:32;2.60;;;1.60;;
32329;SDS011;18807;52.434;13.238;2022-09-28T11:56:14;3.47;;;1.17;;
32329;SDS011;18807;52.434;13.238;2022-09-28T12:03:56;3.03;;;1.40;;
32329;SDS011;18807;52.434;13.238;2022-09-28T12:11:36;1.10;;;1.00;;
32329;SDS011;18807;52.434;13.238;2022-09-28T12:19:15;2.33;;;0.70;;
32329;SDS011;18807;52.434;13.238;2022-09-28T12:26:55;1.02;;;0.63;;
32329;SDS011;18807;52.434;13.238;2022-09-28T12:34:32;1.30;;;0.80;;
32329;SDS011;18807;52.434;13.238;2022-09-28T12:42:10;0.60;;;0.50;;
32329;SDS011;18807;52.434;13.238;2022-09-28T12:49:55;0.82;;;0.70;;
32329;SDS011;18807;52.434;13.238;2022-09-28T12:58:05;1.95;;;0.60;;
32329;SDS011;18807;52.434;13.238;2022-09-28T13:05:59;2.25;;;0.95;;
32329;SDS011;18807;52.434;13.238;2022-09-28T13:13:55;1.05;;;0.73;;
32329;SDS011;18807;52.434;13.238;2022-09-28T13:21:38;1.15;;;0.60;;
32329;SDS011;18807;52.434;13.238;2022-09-28T13:29:20;1.00;;;0.80;;
32329;SDS011;18807;52.434;13.238;2022-09-28T13:37:08;0.88;;;0.40;;
32329;SDS011;18807;52.434;13.238;2022-09-28T13:53:16;1.52;;;1.00;;
32329;SDS011;18807;52.434;13.238;2022-09-28T14:01:03;1.52;;;0.88;;
32329;SDS011;18807;52.434;13.238;2022-09-28T14:08:45;0.82;;;0.70;;
32329;SDS011;18807;52.434;13.238;2022-09-28T14:25:23;0.57;;;0.57;;
32329;SDS011;18807;52.434;13.238;2022-09-28T14:32:58;1.35;;;0.80;;
32329;SDS011;18807;52.434;13.238;2022-09-28T14:48:45;1.75;;;0.80;;
32329;SDS011;18807;52.434;13.238;2022-09-28T14:56:20;1.05;;;0.95;;
32329;SDS011;18807;52.434;13.238;2022-09-28T15:03:56;2.20;;;0.87;;
32329;SDS011;18807;52.434;13.238;2022-09-28T15:11:32;1.15;;;1.00;;
32329;SDS011;18807;52.434;13.238;2022-09-28T15:19:10;1.48;;;1.00;;
32329;SDS011;18807;52.434;13.238;2022-09-28T15:26:54;1.55;;;0.82;;
32329;SDS011;18807;52.434;13.238;2022-09-28T15:34:30;2.47;;;1.00;;
32329;SDS011;18807;52.434;13.238;2022-09-28T15:42:22;1.95;;;1.10;;
32329;SDS011;18807;52.434;13.238;2022-09-28T15:49:58;1.33;;;1.20;;
32329;SDS011;18807;52.434;13.238;2022-09-28T15:57:35;2.25;;;1.58;;
32329;SDS011;18807;52.434;13.238;2022-09-28T16:05:20;2.50;;;1.05;;
32329;SDS011;18807;52.434;13.238;2022-09-28T16:13:07;1.30;;;1.20;;
32329;SDS011;18807;52.434;13.238;2022-09-28T16:20:48;1.25;;;0.90;;
32329;SDS011;18807;52.434;13.238;2022-09-28T16:36:26;2.28;;;2.08;;
32329;SDS011;18807;52.434;13.238;2022-09-28T16:44:01;3.42;;;1.85;;
32329;SDS011;18807;52.434;13.238;2022-09-28T16:51:37;3.20;;;2.67;;
32329;SDS011;18807;52.434;13.238;2022-09-28T16:59:11;2.50;;;2.30;;
32329;SDS011;18807;52.434;13.238;2022-09-28T17:06:46;3.88;;;2.80;;
32329;SDS011;18807;52.434;13.238;2022-09-28T17:21:56;5.60;;;3.30;;
32329;SDS011;18807;52.434;13.238;2022-09-28T17:29:33;4.50;;;4.10;;
32329;SDS011;18807;52.434;13.238;2022-09-28T17:37:09;3.53;;;2.90;;
32329;SDS011;18807;52.434;13.238;2022-09-28T17:44:46;4.00;;;3.60;;
32329;SDS011;18807;52.434;13.238;2022-09-28T17:52:21;2.92;;;2.67;;
32329;SDS011;18807;52.434;13.238;2022-09-28T17:59:55;2.75;;;2.35;;
32329;SDS011;18807;52.434;13.238;2022-09-28T18:07:31;2.97;;;2.40;;
32329;SDS011;18807;52.434;13.238;2022-09-28T18:15:06;4.63;;;2.90;;
32329;SDS011;18807;52.434;13.238;2022-09-28T18:22:41;3.35;;;2.58;;
32329;SDS011;18807;52.434;13.238;2022-09-28T18:37:50;3.75;;;2.67;;
32329;SDS011;18807;52.434;13.238;2022-09-28T18:45:24;3.75;;;2.80;;
32329;SDS011;18807;52.434;13.238;2022-09-28T18:52:59;3.35;;;2.58;;
32329;SDS011;18807;52.434;13.238;2022-09-28T19:00:42;4.03;;;3.20;;
32329;SDS011;18807;52.434;13.238;2022-09-28T19:08:18;3.75;;;3.40;;
32329;SDS011;18807;52.434;13.238;2022-09-28T19:15:58;4.68;;;3.85;;
32329;SDS011;18807;52.434;13.238;2022-09-28T19:23:34;4.27;;;3.70;;
32329;SDS011;18807;52.434;13.238;2022-09-28T19:31:09;5.07;;;4.50;;
32329;SDS011;18807;52.434;13.238;2022-09-28T19:46:18;5.32;;;4.63;;
32329;SDS011;18807;52.434;13.238;2022-09-28T19:53:53;5.95;;;5.35;;
32329;SDS011;18807;52.434;13.238;2022-09-28T20:09:03;6.78;;;5.53;;
32329;SDS011;18807;52.434;13.238;2022-09-28T20:16:37;7.10;;;6.13;;
32329;SDS011;18807;52.434;13.238;2022-09-28T20:24:12;7.65;;;6.28;;
32329;SDS011;18807;52.434;13.238;2022-09-28T20:31:47;10.13;;;6.70;;
32329;SDS011;18807;52.434;13.238;2022-09-28T20:39:22;7.15;;;6.03;;
32329;SDS011;18807;52.434;13.238;2022-09-28T20:54:30;8.35;;;6.65;;
32329;SDS011;18807;52.434;13.238;2022-09-28T21:02:04;9.27;;;6.75;;
32329;SDS011;18807;52.434;13.238;2022-09-28T21:09:39;7.15;;;5.97;;
32329;SDS011;18807;52.434;13.238;2022-09-28T21:17:13;5.35;;;4.75;;
32329;SDS011;18807;52.434;13.238;2022-09-28T21:24:48;6.22;;;4.72;;
32329;SDS011;18807;52.434;13.238;2022-09-28T21:39:57;5.72;;;4.32;;
32329;SDS011;18807;52.434;13.238;2022-09-28T21:47:30;4.38;;;3.70;;
32329;SDS011;18807;52.434;13.238;2022-09-28T21:55:06;4.13;;;3.42;;
32329;SDS011;18807;52.434;13.238;2022-09-28T22:02:41;3.83;;;3.03;;
32329;SDS011;18807;52.434;13.238;2022-09-28T22:10:16;3.40;;;2.87;;
32329;SDS011;18807;52.434;13.238;2022-09-28T22:17:50;3.95;;;2.92;;
32329;SDS011;18807;52.434;13.238;2022-09-28T22:25:25;4.68;;;3.13;;
32329;SDS011;18807;52.434;13.238;2022-09-28T22:40:34;4.82;;;3.40;;
32329;SDS011;18807;52.434;13.238;2022-09-28T22:48:09;4.65;;;3.75;;
32329;SDS011;18807;52.434;13.238;2022-09-28T22:55:45;6.17;;;4.13;;
32329;SDS011;18807;52.434;13.238;2022-09-28T23:03:19;4.75;;;4.03;;
32329;SDS011;18807;52.434;13.238;2022-09-28T23:10:54;5.00;;;3.75;;
32329;SDS011;18807;52.434;13.238;2022-09-28T23:18:28;4.93;;;3.60;;
32329;SDS011;18807;52.434;13.238;2022-09-28T23:26:11;5.57;;;4.00;;
32329;SDS011;18807;52.434;13.238;2022-09-28T23:33:46;5.97;;;4.22;;
32329;SDS011;18807;52.434;13.238;2022-09-28T23:41:21;5.30;;;3.47;;
32329;SDS011;18807;52.434;13.238;2022-09-28T23:48:55;6.13;;;4.32;;
32329;SDS011;18807;52.434;13.238;2022-09-28T23:56:30;6.97;;;4.50;;
